createdAt,value
2022-08-05T00:02:21.884Z,0.00
2022-08-05T00:08:00.410Z,0.00
2022-08-05T00:13:38.998Z,1.00
2022-08-05T00:18:56.689Z,0.00
2022-08-05T00:24:31.139Z,0.00
2022-08-05T00:30:03.419Z,0.00
2022-08-05T00:35:33.592Z,1.00
2022-08-05T00:41:05.155Z,0.00
2022-08-05T00:46:36.883Z,0.00
2022-08-05T00:52:08.459Z,1.00
2022-08-05T00:57:58.431Z,0.00
2022-08-05T03:04:04.238Z,1.00
2022-08-05T03:09:37.423Z,3.00
2022-08-05T03:15:07.509Z,6.00
2022-08-05T03:20:39.505Z,14.00
2022-08-05T03:26:31.543Z,35.00
2022-08-05T03:31:57.261Z,88.00
2022-08-05T03:37:15.607Z,176.00
2022-08-05T03:42:52.004Z,330.00
2022-08-05T03:48:21.845Z,574.00
2022-08-05T03:56:01.658Z,906.00
2022-08-05T03:59:24.670Z,1347.00
2022-08-05T04:04:55.484Z,1896.00
2022-08-05T04:10:27.924Z,2835.00
2022-08-05T04:16:04.210Z,6330.00
2022-08-05T04:22:09.703Z,21437.00
2022-08-05T04:27:02.369Z,22518.00
2022-08-05T04:32:34.323Z,29069.00
2022-08-05T04:38:06.767Z,37889.00
2022-08-05T04:43:38.022Z,37889.00
2022-08-05T04:49:14.602Z,37889.00
2022-08-05T04:54:41.612Z,37889.00
2022-08-05T05:00:13.296Z,20416.00
2022-08-05T05:06:40.280Z,9808.00
2022-08-05T05:11:18.813Z,9680.00
2022-08-05T05:16:50.997Z,9825.00
2022-08-05T05:22:23.840Z,9489.00
2022-08-05T05:27:56.069Z,9826.00
2022-08-05T05:33:26.009Z,10318.00
2022-08-05T05:38:57.792Z,15433.00
2022-08-05T05:44:36.955Z,37889.00
2022-08-05T05:52:28.647Z,37889.00
2022-08-05T05:57:54.215Z,37889.00
2022-08-05T06:04:00.310Z,23119.00
2022-08-05T06:08:57.824Z,22109.00
2022-08-05T06:14:29.576Z,16502.00
2022-08-05T06:20:01.381Z,37889.00
2022-08-05T06:26:12.308Z,37889.00
2022-08-05T06:31:11.257Z,37889.00
2022-08-05T06:36:56.647Z,37889.00
2022-08-05T06:42:08.781Z,37889.00
2022-08-05T06:48:36.776Z,37889.00
2022-08-05T06:53:22.573Z,37889.00
2022-08-05T06:58:44.164Z,37889.00
2022-08-05T07:04:15.772Z,37889.00
2022-08-05T07:09:47.865Z,35950.00
2022-08-05T07:15:34.663Z,29412.00
2022-08-05T07:20:51.215Z,32936.00
2022-08-05T07:26:25.628Z,37889.00
2022-08-05T07:31:55.358Z,37889.00
2022-08-05T07:37:29.311Z,37889.00
2022-08-05T07:42:57.783Z,37889.00
2022-08-05T07:49:01.797Z,37889.00
2022-08-05T07:54:01.804Z,37889.00
2022-08-05T07:59:40.024Z,37889.00
2022-08-05T08:10:34.652Z,37889.00
2022-08-05T08:16:34.608Z,37889.00
2022-08-05T08:21:37.942Z,37889.00
2022-08-05T08:27:09.496Z,37889.00
2022-08-05T08:32:41.885Z,37889.00
2022-08-05T08:38:16.600Z,37889.00
2022-08-05T08:45:18.095Z,37889.00
2022-08-05T08:50:07.739Z,37889.00
2022-08-05T08:54:48.785Z,37889.00
2022-08-05T09:00:20.472Z,37889.00
2022-08-05T09:06:07.941Z,37889.00
2022-08-05T09:11:52.033Z,37889.00
2022-08-05T09:16:57.828Z,37889.00
2022-08-05T09:28:04.308Z,27215.00
2022-08-05T09:33:34.993Z,29353.00
2022-08-05T09:39:01.300Z,33294.00
2022-08-05T09:44:32.941Z,37889.00
2022-08-05T09:50:04.432Z,37888.00
2022-08-05T09:55:56.478Z,37889.00
2022-08-05T10:01:14.615Z,27523.00
2022-08-05T10:06:40.075Z,35427.00
2022-08-05T10:12:30.735Z,29393.00
2022-08-05T10:17:54.427Z,23531.00
2022-08-05T10:23:34.277Z,22464.00
2022-08-05T10:28:46.663Z,19422.00
2022-08-05T10:34:18.303Z,18945.00
2022-08-05T10:39:59.214Z,17737.00
2022-08-05T10:45:23.732Z,17230.00
2022-08-05T10:50:53.709Z,17221.00
2022-08-05T10:56:25.151Z,18055.00
2022-08-05T11:07:32.771Z,19134.00
2022-08-05T11:12:58.375Z,14966.00
2022-08-05T11:18:32.614Z,23131.00
2022-08-05T11:24:04.924Z,17212.00
2022-08-05T11:29:33.984Z,17106.00
2022-08-05T11:35:05.459Z,18436.00
2022-08-05T11:40:37.130Z,18944.00
2022-08-05T11:46:27.041Z,29287.00
2022-08-05T11:57:25.331Z,28074.00
2022-08-05T12:02:46.059Z,30575.00
2022-08-05T12:08:18.043Z,37889.00
2022-08-05T12:13:50.074Z,33255.00
2022-08-05T12:20:16.713Z,26790.00
2022-08-05T12:24:53.314Z,37013.00
2022-08-05T12:30:24.927Z,29772.00
2022-08-05T12:35:56.919Z,30411.00
2022-08-05T12:41:34.515Z,24857.00
2022-08-05T12:46:59.892Z,23407.00
2022-08-05T12:52:39.530Z,25805.00
2022-08-05T13:03:41.616Z,22796.00
2022-08-05T13:09:08.540Z,19516.00
2022-08-05T13:14:39.017Z,19962.00
2022-08-05T13:20:11.482Z,22354.00
2022-08-05T13:25:51.830Z,17623.00
2022-08-05T13:31:14.697Z,19897.00
2022-08-05T13:36:46.225Z,19767.00
2022-08-05T13:42:18.036Z,27775.00
2022-08-05T13:48:09.848Z,27837.00
2022-08-05T13:53:21.374Z,21239.00
2022-08-05T13:58:53.880Z,15038.00
2022-08-05T14:04:26.582Z,18533.00
2022-08-05T14:09:56.377Z,24713.00
2022-08-05T14:16:07.547Z,20360.00
2022-08-05T14:21:00.187Z,17862.00
2022-08-05T14:26:38.555Z,17195.00
2022-08-05T14:32:15.978Z,16945.00
2022-08-05T14:37:48.069Z,16228.00
2022-08-05T14:43:07.406Z,15722.00
2022-08-05T14:48:38.948Z,15740.00
2022-08-05T14:54:27.690Z,15384.00
2022-08-05T14:59:42.585Z,14658.00
2022-08-05T15:05:14.339Z,14396.00
2022-08-05T15:10:46.767Z,14220.00
2022-08-05T15:16:18.022Z,14675.00
2022-08-05T15:21:50.129Z,17322.00
2022-08-05T15:27:25.729Z,17193.00
2022-08-05T15:32:54.215Z,20434.00
2022-08-05T15:38:35.388Z,21010.00
2022-08-05T15:43:57.938Z,19614.00
2022-08-05T15:49:48.048Z,16564.00
2022-08-05T15:55:02.209Z,9043.00
2022-08-05T16:00:50.854Z,7834.00
2022-08-05T16:06:06.150Z,9913.00
2022-08-05T16:11:42.366Z,9496.00
2022-08-05T16:17:10.095Z,8569.00
2022-08-05T16:22:41.776Z,9102.00
2022-08-05T16:28:13.517Z,9679.00
2022-08-05T16:33:45.178Z,9341.00
2022-08-05T16:39:17.009Z,9319.00
2022-08-05T16:44:54.350Z,7945.00
2022-08-05T16:50:20.620Z,7451.00
2022-08-05T16:55:58.470Z,6759.00
2022-08-05T17:01:52.982Z,6046.00
2022-08-05T17:07:03.322Z,5694.00
2022-08-05T17:12:51.079Z,5532.00
2022-08-05T17:18:14.086Z,5122.00
2022-08-05T17:24:04.778Z,6025.00
2022-08-05T17:29:16.729Z,5793.00
2022-08-05T17:34:49.325Z,5355.00
2022-08-05T17:40:22.440Z,4982.00
2022-08-05T17:45:52.578Z,4387.00
2022-08-05T17:51:24.658Z,3883.00
2022-08-05T17:56:56.497Z,3868.00
2022-08-05T18:02:28.866Z,3388.00
2022-08-05T18:08:00.619Z,2934.00
2022-08-05T18:13:36.774Z,2701.00
2022-08-05T18:19:04.290Z,2222.00
2022-08-05T18:24:35.842Z,1177.00
2022-08-05T18:30:07.655Z,368.00
2022-08-05T18:36:00.490Z,100.00
2022-08-05T18:41:55.809Z,49.00
2022-08-05T18:46:43.416Z,27.00
2022-08-05T18:52:15.322Z,17.00
2022-08-05T18:57:52.811Z,12.00
2022-08-05T19:03:18.943Z,9.00
2022-08-05T19:06:12.424Z,7.00
2022-08-05T19:11:05.103Z,2.00
2022-08-05T19:16:36.907Z,1.00
2022-08-05T19:22:07.784Z,1.00
2022-08-05T19:27:41.027Z,1.00
2022-08-05T19:33:16.914Z,1.00
2022-08-05T19:38:45.526Z,1.00
2022-08-05T19:44:18.392Z,1.00
2022-08-05T19:49:50.101Z,0.00
2022-08-05T20:00:56.419Z,0.00
2022-08-05T20:06:29.201Z,0.00
2022-08-05T20:11:59.943Z,1.00
2022-08-05T20:17:31.437Z,0.00
2022-08-05T20:23:03.006Z,1.00
2022-08-05T20:28:34.598Z,1.00
2022-08-05T20:34:06.513Z,1.00
2022-08-05T20:39:38.465Z,0.00
2022-08-05T20:50:47.998Z,1.00
2022-08-05T20:56:28.813Z,1.00
2022-08-05T21:01:51.382Z,0.00
2022-08-05T21:07:23.187Z,0.00
2022-08-05T21:13:09.081Z,1.00
2022-08-05T21:18:26.797Z,3.00
2022-08-05T21:23:58.380Z,0.00
2022-08-05T21:29:31.785Z,0.00
2022-08-05T21:35:16.829Z,0.00
2022-08-05T21:40:34.929Z,1.00
2022-08-05T21:46:06.849Z,0.00
2022-08-05T21:52:27.829Z,0.00
2022-08-05T21:57:30.699Z,0.00
2022-08-05T22:02:42.551Z,2.00
2022-08-05T22:08:22.206Z,0.00
2022-08-05T22:14:19.510Z,0.00
2022-08-05T22:20:02.680Z,0.00
2022-08-05T22:24:52.181Z,0.00
2022-08-05T22:30:21.862Z,0.00
2022-08-05T22:35:53.986Z,1.00
2022-08-05T22:42:04.765Z,1.00
2022-08-05T22:46:57.281Z,0.00
2022-08-05T22:52:32.317Z,0.00
2022-08-05T23:03:57.356Z,0.00
2022-08-05T23:09:27.425Z,0.00
2022-08-05T23:14:36.737Z,0.00
2022-08-05T23:20:15.525Z,0.00
2022-08-05T23:25:51.447Z,0.00
2022-08-05T23:31:16.892Z,1.00
2022-08-05T23:36:45.182Z,0.00
2022-08-05T23:42:16.734Z,0.00
2022-08-05T23:47:48.583Z,0.00
2022-08-05T23:53:22.512Z,0.00
2022-08-05T23:58:52.143Z,0.00
